Porter County Municipal Airport Valparaiso US
ICAO: KVPZ
IATA: VPZ
Category: Medium
Scheduled Services: No

Elevation: 770 ft
TransAlt. 18000 ft.

Airport Communications:
SOUTH BEND APP/DEP:132.05
ASOS:125.875
SOUTH BEND CLNC DEL:135.2
CTAF:122.725
TERRE HAUTE RDO:123.65
UNICOM:122.725

KVPZ Zoom In..

If you have problems with the map follow the link
https://www.worldairports.se/pages/airport.php?
ICAO=KVPZ

Runways:

(A) RW 09 length 7001 ft width 150 ft
---- / hdg 92

(B) RW 18 length 4001 ft width 75 ft
---- / hdg 182

(C) RW 27 length 7001 ft width 150 ft
ILS 109.70 / hdg 272

(D) RW 36 length 4001 ft width 75 ft
---- / hdg 2

Location; KVPZ
Day. 28 / Time. 14.43 Zulu
* Altimeter: 30.09
* Temperature: -01° c. -30.2°f.
* Wind from: 250° Speed 05 kn.
Dewpoint: -02° c.
Visibility: 3 Statute Miles.
Clouds: Overcast 1700 ft.
Conditions: Mist.

KVPZ 281443Z AUTO 25005KT 3SM UP BR OVC017 M01/M02 A3009 RMK AO2 UPE03B12E14B34SNB03E12B33E34 P0000 T10061022


Wind From 250°
Speed 05 kn.

 
 
jpsmedia worldairports.se 2020   terms of use